createdAt,value
2019-03-24T00:00:35.982Z,7.79
2019-03-24T00:03:04.895Z,7.79
2019-03-24T00:05:33.385Z,7.80
2019-03-24T00:08:02.021Z,7.81
2019-03-24T00:10:30.653Z,7.76
2019-03-24T00:12:59.142Z,7.76
2019-03-24T00:15:27.886Z,7.76
2019-03-24T00:17:56.517Z,7.75
2019-03-24T00:20:25.099Z,7.64
2019-03-24T00:22:53.965Z,7.64
2019-03-24T00:25:22.595Z,7.61
2019-03-24T00:27:51.157Z,7.61
2019-03-24T00:30:19.860Z,7.52
2019-03-24T00:32:48.493Z,7.50
2019-03-24T00:35:17.173Z,7.47
2019-03-24T00:37:45.778Z,7.47
2019-03-24T00:40:14.811Z,7.40
2019-03-24T00:42:43.449Z,7.39
2019-03-24T00:45:12.306Z,7.35
2019-03-24T00:47:40.862Z,7.39
2019-03-24T00:50:09.773Z,7.35
2019-03-24T00:52:38.438Z,7.32
2019-03-24T00:55:07.568Z,7.30
2019-03-24T00:57:37.559Z,7.24
2019-03-24T01:00:11.584Z,7.23
2019-03-24T01:02:40.241Z,7.24
2019-03-24T01:05:09.240Z,7.19
2019-03-24T01:07:37.996Z,7.20
2019-03-24T01:10:09.424Z,7.15
2019-03-24T01:12:38.063Z,7.14
2019-03-24T01:15:08.093Z,7.16
2019-03-24T01:17:38.040Z,7.11
2019-03-24T01:20:07.580Z,7.06
2019-03-24T01:22:36.650Z,7.11
2019-03-24T01:25:05.992Z,7.04
2019-03-24T01:27:34.552Z,7.04
2019-03-24T01:30:03.331Z,7.00
2019-03-24T01:32:31.962Z,6.97
2019-03-24T01:35:00.476Z,6.92
2019-03-24T01:37:30.356Z,6.96
2019-03-24T01:39:58.996Z,6.98
2019-03-24T01:42:27.559Z,6.94
2019-03-24T01:44:56.354Z,6.85
2019-03-24T01:47:25.011Z,6.81
2019-03-24T01:49:53.636Z,6.82
2019-03-24T01:52:22.163Z,6.87
2019-03-24T01:54:50.667Z,6.83
2019-03-24T01:57:19.383Z,6.76
2019-03-24T01:59:48.052Z,6.78
2019-03-24T02:02:16.617Z,6.79
2019-03-24T02:04:45.174Z,6.80
2019-03-24T02:07:13.840Z,6.73
2019-03-24T02:09:42.474Z,6.74
2019-03-24T02:12:11.109Z,6.81
2019-03-24T02:14:39.975Z,6.66
2019-03-24T02:17:08.540Z,6.61
2019-03-24T02:19:37.041Z,6.53
2019-03-24T02:22:05.808Z,6.28
2019-03-24T02:24:34.444Z,6.14
2019-03-24T02:27:03.180Z,6.10
2019-03-24T02:29:31.868Z,5.97
2019-03-24T02:32:00.509Z,5.88
2019-03-24T02:34:29.137Z,5.80
2019-03-24T02:36:57.672Z,5.70
2019-03-24T02:39:26.170Z,5.64
2019-03-24T02:41:54.858Z,5.58
2019-03-24T02:44:23.545Z,5.48
2019-03-24T02:46:52.041Z,5.44
2019-03-24T02:49:20.538Z,5.40
2019-03-24T02:51:49.204Z,5.28
2019-03-24T02:54:17.704Z,5.26
2019-03-24T02:56:46.336Z,5.23
2019-03-24T02:59:15.190Z,5.22
2019-03-24T03:01:43.702Z,5.13
2019-03-24T03:04:12.203Z,5.07
2019-03-24T03:06:40.864Z,5.03
2019-03-24T03:09:09.509Z,5.07
2019-03-24T03:11:38.012Z,4.99
2019-03-24T03:14:07.137Z,4.94
2019-03-24T03:16:38.578Z,4.94
2019-03-24T03:19:06.225Z,4.94
2019-03-24T03:21:34.991Z,4.90
2019-03-24T03:24:03.563Z,4.91
2019-03-24T03:26:32.191Z,4.87
2019-03-24T03:29:00.867Z,4.87
2019-03-24T03:31:29.368Z,4.86
2019-03-24T03:33:57.885Z,4.87
2019-03-24T03:36:26.668Z,4.83
2019-03-24T03:38:55.312Z,4.76
2019-03-24T03:41:23.891Z,4.80
2019-03-24T03:43:52.478Z,4.74
2019-03-24T03:46:21.114Z,4.75
2019-03-24T03:48:49.750Z,4.68
2019-03-24T03:51:18.310Z,4.59
2019-03-24T03:53:46.941Z,4.58
2019-03-24T03:56:15.621Z,4.54
2019-03-24T03:58:44.254Z,4.55
2019-03-24T04:01:12.754Z,4.57
2019-03-24T04:03:41.289Z,4.58
2019-03-24T04:06:09.932Z,4.56
2019-03-24T04:08:38.562Z,4.54
2019-03-24T04:11:07.161Z,4.50
2019-03-24T04:13:35.794Z,4.53
2019-03-24T04:16:04.431Z,4.54
2019-03-24T04:18:32.967Z,4.53
2019-03-24T04:21:01.618Z,4.55
2019-03-24T04:23:30.251Z,4.57
2019-03-24T04:25:58.789Z,4.57
2019-03-24T04:28:27.361Z,4.54
2019-03-24T04:30:55.997Z,4.54
2019-03-24T04:33:24.684Z,4.63
2019-03-24T04:35:53.159Z,4.71
2019-03-24T04:38:21.721Z,4.86
2019-03-24T04:40:50.393Z,5.04
2019-03-24T04:43:19.025Z,5.28
2019-03-24T04:45:47.619Z,5.67
2019-03-24T04:48:16.161Z,6.06
2019-03-24T04:50:44.803Z,6.55
2019-03-24T04:53:13.291Z,7.01
2019-03-24T04:55:41.979Z,7.55
2019-03-24T04:58:10.607Z,8.23
2019-03-24T05:00:40.243Z,8.88
2019-03-24T05:03:09.262Z,9.33
2019-03-24T05:05:39.366Z,9.69
2019-03-24T05:08:09.449Z,10.26
2019-03-24T05:10:38.190Z,10.82
2019-03-24T05:13:06.768Z,11.26
2019-03-24T05:15:35.409Z,11.88
2019-03-24T05:18:04.091Z,12.38
2019-03-24T05:20:32.604Z,12.90
2019-03-24T05:23:01.252Z,13.20
2019-03-24T05:25:30.001Z,13.70
2019-03-24T05:27:58.638Z,14.09
2019-03-24T05:30:27.204Z,14.11
2019-03-24T05:32:55.877Z,14.55
2019-03-24T05:35:24.379Z,14.85
2019-03-24T05:37:52.883Z,14.77
2019-03-24T05:40:21.565Z,15.04
2019-03-24T05:42:50.200Z,14.86
2019-03-24T05:45:18.837Z,14.71
2019-03-24T05:47:47.371Z,15.44
2019-03-24T05:50:16.083Z,15.52
2019-03-24T05:52:44.758Z,16.13
2019-03-24T05:55:14.269Z,16.11
2019-03-24T05:57:42.774Z,16.21
2019-03-24T06:00:11.993Z,16.98
2019-03-24T06:02:40.596Z,17.09
2019-03-24T06:05:09.171Z,17.43
2019-03-24T06:07:37.683Z,17.01
2019-03-24T06:10:07.058Z,17.80
2019-03-24T06:12:35.696Z,17.56
2019-03-24T06:15:05.945Z,17.68
2019-03-24T06:17:34.617Z,17.93
2019-03-24T06:20:03.766Z,18.05
2019-03-24T06:22:32.270Z,18.47
2019-03-24T06:25:00.951Z,19.01
2019-03-24T06:27:29.601Z,18.81
2019-03-24T06:29:58.094Z,18.96
2019-03-24T06:32:26.634Z,18.99
2019-03-24T06:34:55.285Z,19.10
2019-03-24T06:37:23.917Z,17.48
2019-03-24T06:39:52.467Z,18.10
2019-03-24T06:42:20.970Z,18.50
2019-03-24T06:44:49.611Z,18.81
2019-03-24T06:47:18.450Z,19.39
2019-03-24T06:49:47.024Z,18.98
2019-03-24T06:52:16.335Z,18.87
2019-03-24T06:54:44.903Z,19.11
2019-03-24T06:57:13.410Z,18.52
2019-03-24T06:59:42.298Z,18.41
2019-03-24T07:02:10.944Z,17.82
2019-03-24T07:04:39.443Z,16.69
2019-03-24T07:07:08.156Z,17.11
2019-03-24T07:09:36.790Z,17.67
2019-03-24T07:12:05.426Z,18.58
2019-03-24T07:14:34.033Z,19.21
2019-03-24T07:17:02.679Z,19.36
2019-03-24T07:19:31.328Z,18.79
2019-03-24T07:22:00.000Z,18.99
2019-03-24T07:24:28.568Z,19.11
2019-03-24T07:26:57.143Z,19.33
2019-03-24T07:29:26.018Z,19.21
2019-03-24T07:31:54.524Z,18.90
2019-03-24T07:34:23.159Z,18.96
2019-03-24T07:36:51.833Z,19.00
2019-03-24T07:39:20.406Z,19.18
2019-03-24T07:41:48.975Z,19.34
2019-03-24T07:44:17.648Z,19.17
2019-03-24T07:46:46.283Z,18.50
2019-03-24T07:49:14.785Z,18.66
2019-03-24T07:51:43.320Z,17.93
2019-03-24T07:54:12.007Z,17.59
2019-03-24T07:56:40.646Z,18.09
2019-03-24T07:59:09.249Z,18.82
2019-03-24T08:01:37.751Z,18.04
2019-03-24T08:04:06.454Z,17.84
2019-03-24T08:06:35.375Z,18.75
2019-03-24T08:09:05.524Z,19.12
2019-03-24T08:11:34.168Z,18.18
2019-03-24T08:14:02.776Z,18.78
2019-03-24T08:16:31.415Z,19.08
2019-03-24T08:19:00.056Z,19.11
2019-03-24T08:21:28.742Z,18.77
2019-03-24T08:23:57.246Z,18.46
2019-03-24T08:26:25.863Z,18.02
2019-03-24T08:28:54.540Z,17.56
2019-03-24T08:31:23.182Z,16.72
2019-03-24T08:33:51.714Z,17.21
2019-03-24T08:36:20.321Z,17.71
2019-03-24T08:38:48.963Z,18.52
2019-03-24T08:41:17.599Z,18.41
2019-03-24T08:43:46.393Z,18.50
2019-03-24T08:46:14.874Z,18.67
2019-03-24T08:48:43.505Z,19.12
2019-03-24T08:51:12.199Z,19.00
2019-03-24T08:53:40.693Z,18.52
2019-03-24T08:56:09.193Z,18.43
2019-03-24T08:58:37.843Z,18.41
2019-03-24T09:01:06.479Z,17.96
2019-03-24T09:03:35.149Z,18.35
2019-03-24T09:06:03.846Z,18.51
2019-03-24T09:08:32.462Z,18.20
2019-03-24T09:11:01.159Z,17.58
2019-03-24T09:13:29.653Z,17.65
2019-03-24T09:15:58.157Z,17.64
2019-03-24T09:18:26.838Z,18.03
2019-03-24T09:20:55.480Z,17.91
2019-03-24T09:23:23.983Z,17.59
2019-03-24T09:25:52.696Z,17.58
2019-03-24T09:28:21.338Z,17.97
2019-03-24T09:30:49.836Z,17.80
2019-03-24T09:33:18.508Z,16.73
2019-03-24T09:35:47.139Z,16.64
2019-03-24T09:38:15.707Z,15.77
2019-03-24T09:40:44.332Z,16.10
2019-03-24T09:43:12.957Z,16.47
2019-03-24T09:45:41.588Z,17.05
2019-03-24T09:48:10.192Z,17.24
2019-03-24T09:50:38.792Z,17.56
2019-03-24T09:53:07.427Z,17.74
2019-03-24T09:55:36.118Z,17.58
2019-03-24T09:58:04.788Z,17.42
2019-03-24T10:00:33.328Z,17.81
2019-03-24T10:03:02.006Z,17.54
2019-03-24T10:05:30.633Z,16.94
2019-03-24T10:07:59.127Z,17.07
2019-03-24T10:10:27.803Z,16.92
2019-03-24T10:12:56.306Z,16.83
2019-03-24T10:15:24.934Z,16.94
2019-03-24T10:17:53.622Z,16.86
2019-03-24T10:20:22.251Z,16.82
2019-03-24T10:22:50.822Z,16.86
2019-03-24T10:25:19.424Z,16.84
2019-03-24T10:27:48.060Z,16.52
2019-03-24T10:30:16.888Z,16.99
2019-03-24T10:32:45.670Z,17.44
2019-03-24T10:35:14.303Z,17.89
2019-03-24T10:37:42.944Z,17.61
2019-03-24T10:40:11.709Z,17.11
2019-03-24T10:42:40.277Z,16.81
2019-03-24T10:45:09.217Z,17.34
2019-03-24T10:47:37.899Z,17.56
2019-03-24T10:50:08.687Z,17.51
2019-03-24T10:52:37.348Z,17.65
2019-03-24T10:55:08.593Z,17.78
2019-03-24T10:57:37.162Z,17.89
2019-03-24T11:00:11.538Z,17.63
2019-03-24T11:02:40.257Z,17.81
2019-03-24T11:05:09.183Z,17.89
2019-03-24T11:07:37.795Z,17.86
2019-03-24T11:10:08.450Z,17.72
2019-03-24T11:12:37.089Z,17.46
2019-03-24T11:15:08.315Z,17.55
2019-03-24T11:17:36.976Z,17.32
2019-03-24T11:20:08.329Z,17.16
2019-03-24T11:22:36.956Z,17.09
2019-03-24T11:25:08.080Z,17.05
2019-03-24T11:27:36.671Z,16.93
2019-03-24T11:30:13.734Z,16.75
2019-03-24T11:32:42.757Z,16.86
2019-03-24T11:35:11.700Z,17.07
2019-03-24T11:37:40.451Z,17.36
2019-03-24T11:40:10.083Z,17.63
2019-03-24T11:42:38.710Z,17.73
2019-03-24T11:45:09.849Z,17.94
2019-03-24T11:47:38.481Z,17.81
2019-03-24T11:50:08.312Z,17.68
2019-03-24T11:52:37.294Z,17.37
2019-03-24T11:55:09.524Z,17.18
2019-03-24T11:57:38.349Z,17.34
2019-03-24T12:00:09.918Z,17.31
2019-03-24T12:02:38.481Z,17.39
2019-03-24T12:05:08.298Z,17.03
2019-03-24T12:07:36.977Z,17.01
2019-03-24T12:10:07.072Z,17.31
2019-03-24T12:12:35.703Z,17.32
2019-03-24T12:15:06.092Z,16.67
2019-03-24T12:17:34.708Z,16.72
2019-03-24T12:20:04.544Z,17.01
2019-03-24T12:22:33.213Z,16.86
2019-03-24T12:25:01.857Z,17.01
2019-03-24T12:27:30.368Z,17.21
2019-03-24T12:29:58.969Z,17.45
2019-03-24T12:32:27.598Z,17.72
2019-03-24T12:34:56.294Z,17.65
2019-03-24T12:37:24.831Z,17.46
2019-03-24T12:39:53.388Z,17.37
2019-03-24T12:42:22.145Z,17.25
2019-03-24T12:44:50.812Z,17.15
2019-03-24T12:47:19.394Z,17.05
2019-03-24T12:49:48.027Z,17.17
2019-03-24T12:52:16.704Z,17.14
2019-03-24T12:54:45.195Z,17.35
2019-03-24T12:57:13.837Z,17.35
2019-03-24T12:59:42.516Z,17.37
2019-03-24T13:02:11.023Z,17.71
2019-03-24T13:04:39.519Z,17.92
2019-03-24T13:07:08.297Z,18.12
2019-03-24T13:09:36.930Z,18.36
2019-03-24T13:12:05.561Z,18.37
2019-03-24T13:14:34.098Z,18.47
2019-03-24T13:17:02.711Z,18.37
2019-03-24T13:19:31.337Z,18.38
2019-03-24T13:21:59.882Z,18.56
2019-03-24T13:24:28.456Z,18.61
2019-03-24T13:26:57.089Z,18.73
2019-03-24T13:29:25.618Z,18.51
2019-03-24T13:31:54.252Z,18.34
2019-03-24T13:34:22.884Z,18.36
2019-03-24T13:36:51.614Z,18.32
2019-03-24T13:39:20.169Z,17.97
2019-03-24T13:41:48.812Z,17.84
2019-03-24T13:44:17.813Z,18.02
2019-03-24T13:46:46.297Z,17.91
2019-03-24T13:49:14.799Z,17.94
2019-03-24T13:51:43.727Z,17.79
2019-03-24T13:54:12.355Z,17.70
2019-03-24T13:56:40.851Z,17.71
2019-03-24T13:59:09.383Z,17.82
2019-03-24T14:01:38.010Z,17.84
2019-03-24T14:04:06.645Z,17.94
2019-03-24T14:06:35.180Z,18.05
2019-03-24T14:09:04.517Z,18.20
2019-03-24T14:11:33.259Z,18.32
2019-03-24T14:14:01.893Z,18.41
2019-03-24T14:16:30.446Z,18.26
2019-03-24T14:18:59.170Z,17.99
2019-03-24T14:21:27.819Z,18.14
2019-03-24T14:23:56.465Z,18.03
2019-03-24T14:26:25.144Z,17.94
2019-03-24T14:28:53.700Z,18.06
2019-03-24T14:31:22.344Z,17.88
2019-03-24T14:33:51.005Z,17.57
2019-03-24T14:36:19.576Z,17.51
2019-03-24T14:38:48.149Z,17.62
2019-03-24T14:41:17.032Z,17.71
2019-03-24T14:43:45.688Z,17.46
2019-03-24T14:46:14.179Z,17.38
2019-03-24T14:48:42.843Z,17.41
2019-03-24T14:51:11.335Z,17.44
2019-03-24T14:53:39.900Z,17.45
2019-03-24T14:56:08.568Z,17.39
2019-03-24T14:58:37.194Z,17.37
2019-03-24T15:01:05.688Z,17.33
2019-03-24T15:03:34.478Z,17.50
2019-03-24T15:06:03.116Z,17.52
2019-03-24T15:08:31.745Z,17.55
2019-03-24T15:11:00.277Z,17.49
2019-03-24T15:13:28.849Z,17.45
2019-03-24T15:15:57.473Z,17.34
2019-03-24T15:18:26.152Z,17.26
2019-03-24T15:21:04.914Z,17.27
2019-03-24T15:23:24.924Z,17.30
2019-03-24T15:25:54.403Z,17.25
2019-03-24T15:28:22.877Z,17.38
2019-03-24T15:30:51.498Z,17.32
2019-03-24T15:33:20.173Z,17.32
2019-03-24T15:35:48.666Z,17.33
2019-03-24T15:38:17.151Z,17.44
2019-03-24T15:40:45.830Z,17.28
2019-03-24T15:43:14.462Z,17.26
2019-03-24T15:45:43.094Z,17.15
2019-03-24T15:48:11.665Z,17.17
2019-03-24T15:50:40.296Z,17.12
2019-03-24T15:53:09.014Z,17.02
2019-03-24T15:55:37.572Z,16.90
2019-03-24T15:58:06.208Z,16.85
2019-03-24T16:00:45.529Z,16.82
2019-03-24T16:03:14.372Z,16.84
2019-03-24T16:05:43.020Z,16.77
2019-03-24T16:08:11.701Z,16.81
2019-03-24T16:10:40.321Z,16.83
2019-03-24T16:13:08.896Z,16.85
2019-03-24T16:15:37.560Z,16.87
2019-03-24T16:18:06.194Z,16.79
2019-03-24T16:20:34.683Z,16.86
2019-03-24T16:23:04.264Z,16.72
2019-03-24T16:25:32.900Z,16.67
2019-03-24T16:28:01.532Z,16.62
2019-03-24T16:30:30.148Z,16.55
2019-03-24T16:32:58.631Z,16.46
2019-03-24T16:35:27.274Z,16.40
2019-03-24T16:37:55.951Z,16.30
2019-03-24T16:40:24.515Z,16.13
2019-03-24T16:42:53.009Z,15.97
2019-03-24T16:45:21.688Z,15.89
2019-03-24T16:47:50.259Z,15.80
2019-03-24T16:50:18.895Z,15.73
2019-03-24T16:52:47.813Z,15.64
2019-03-24T16:55:16.322Z,15.56
2019-03-24T16:57:44.797Z,15.50
2019-03-24T17:00:13.771Z,15.41
2019-03-24T17:02:42.411Z,15.34
2019-03-24T17:05:11.353Z,15.26
2019-03-24T17:07:39.920Z,15.17
2019-03-24T17:10:08.949Z,15.12
2019-03-24T17:12:37.578Z,15.04
2019-03-24T17:15:07.735Z,14.96
2019-03-24T17:17:36.363Z,14.90
2019-03-24T17:20:07.341Z,14.75
2019-03-24T17:22:35.970Z,14.70
2019-03-24T17:25:04.999Z,14.67
2019-03-24T17:27:33.666Z,14.61
2019-03-24T17:30:02.175Z,14.59
2019-03-24T17:32:30.728Z,14.53
2019-03-24T17:34:59.391Z,14.42
2019-03-24T17:37:29.955Z,14.37
2019-03-24T17:39:58.254Z,14.31
2019-03-24T17:42:26.820Z,14.27
2019-03-24T17:44:55.500Z,14.21
2019-03-24T17:47:24.128Z,14.16
2019-03-24T17:49:52.799Z,14.08
2019-03-24T17:52:21.393Z,14.02
2019-03-24T17:54:50.034Z,13.97
2019-03-24T17:57:18.713Z,13.93
2019-03-24T17:59:47.209Z,13.90
2019-03-24T18:02:15.843Z,13.85
2019-03-24T18:04:44.518Z,13.72
2019-03-24T18:07:13.087Z,13.59
2019-03-24T18:09:41.722Z,13.52
2019-03-24T18:12:10.407Z,13.40
2019-03-24T18:14:38.907Z,13.33
2019-03-24T18:17:07.642Z,13.26
2019-03-24T18:19:36.340Z,13.14
2019-03-24T18:22:11.460Z,12.99
2019-03-24T18:24:35.193Z,12.93
2019-03-24T18:27:03.808Z,12.87
2019-03-24T18:29:32.461Z,12.81
2019-03-24T18:32:01.097Z,12.75
2019-03-24T18:34:29.858Z,12.71
2019-03-24T18:36:58.358Z,12.68
2019-03-24T18:39:26.992Z,12.66
2019-03-24T18:41:55.686Z,12.76
2019-03-24T18:44:24.263Z,12.74
2019-03-24T18:46:52.897Z,12.67
2019-03-24T18:49:21.640Z,12.59
2019-03-24T18:51:50.137Z,12.49
2019-03-24T18:54:18.784Z,12.45
2019-03-24T18:56:47.447Z,12.33
2019-03-24T18:59:15.949Z,12.25
2019-03-24T19:01:44.460Z,12.23
2019-03-24T19:04:13.150Z,12.26
2019-03-24T19:06:41.786Z,12.22
2019-03-24T19:09:10.417Z,12.22
2019-03-24T19:11:39.016Z,12.12
2019-03-24T19:14:07.667Z,12.02
2019-03-24T19:16:36.328Z,11.92
2019-03-24T19:19:05.094Z,11.80
2019-03-24T19:21:33.767Z,11.67
2019-03-24T19:24:02.396Z,11.67
2019-03-24T19:26:31.074Z,11.54
2019-03-24T19:28:59.653Z,11.43
2019-03-24T19:31:28.591Z,11.48
2019-03-24T19:33:57.452Z,11.32
2019-03-24T19:36:26.097Z,11.23
2019-03-24T19:38:54.963Z,11.09
2019-03-24T19:41:23.499Z,11.03
2019-03-24T19:43:52.135Z,10.90
2019-03-24T19:46:20.885Z,10.78
2019-03-24T19:48:49.498Z,10.81
2019-03-24T19:51:18.129Z,10.89
2019-03-24T19:53:46.762Z,10.68
2019-03-24T19:56:15.451Z,10.60
2019-03-24T19:58:43.954Z,10.51
2019-03-24T20:01:12.449Z,10.52
2019-03-24T20:03:43.454Z,10.58
2019-03-24T20:06:11.495Z,10.57
2019-03-24T20:08:40.132Z,10.46
2019-03-24T20:11:08.815Z,10.39
2019-03-24T20:13:37.383Z,10.27
2019-03-24T20:16:05.875Z,10.26
2019-03-24T20:18:34.652Z,10.18
2019-03-24T20:21:03.309Z,10.07
2019-03-24T20:23:31.904Z,9.97
2019-03-24T20:26:00.432Z,9.88
2019-03-24T20:28:29.077Z,9.79
2019-03-24T20:30:57.722Z,9.74
2019-03-24T20:33:26.244Z,9.68
2019-03-24T20:35:54.743Z,9.63
2019-03-24T20:38:23.377Z,9.55
2019-03-24T20:40:52.044Z,9.45
2019-03-24T20:43:20.546Z,9.37
2019-03-24T20:45:49.191Z,9.30
2019-03-24T20:48:17.952Z,9.25
2019-03-24T20:50:46.446Z,9.24
2019-03-24T20:53:18.493Z,9.21
2019-03-24T20:55:45.481Z,9.21
2019-03-24T20:58:13.978Z,9.13
2019-03-24T21:00:42.547Z,9.09
2019-03-24T21:03:11.219Z,9.09
2019-03-24T21:05:39.854Z,9.09
2019-03-24T21:08:08.489Z,9.02
2019-03-24T21:10:37.358Z,8.92
2019-03-24T21:13:06.105Z,8.88
2019-03-24T21:15:34.738Z,8.82
2019-03-24T21:18:03.515Z,8.81
2019-03-24T21:20:32.013Z,8.84
2019-03-24T21:23:00.647Z,8.79
2019-03-24T21:25:29.252Z,8.77
2019-03-24T21:27:57.889Z,8.76
2019-03-24T21:30:34.032Z,8.66
2019-03-24T21:33:02.598Z,8.60
2019-03-24T21:35:31.248Z,8.61
2019-03-24T21:37:59.914Z,8.64
2019-03-24T21:40:28.545Z,8.73
2019-03-24T21:42:57.037Z,8.75
2019-03-24T21:45:25.642Z,8.60
2019-03-24T21:47:54.271Z,8.48
2019-03-24T21:50:22.907Z,8.39
2019-03-24T21:52:51.515Z,8.38
2019-03-24T21:55:20.107Z,8.26
2019-03-24T21:57:57.195Z,8.19
2019-03-24T22:00:22.168Z,8.25
2019-03-24T22:02:50.675Z,8.19
2019-03-24T22:05:19.312Z,8.08
2019-03-24T22:07:47.841Z,8.01
2019-03-24T22:10:16.477Z,7.93
2019-03-24T22:12:45.110Z,7.91
2019-03-24T22:15:13.779Z,7.91
2019-03-24T22:17:42.289Z,7.97
2019-03-24T22:20:11.022Z,8.03
2019-03-24T22:22:39.693Z,8.09
2019-03-24T22:25:09.792Z,8.17
2019-03-24T22:27:38.395Z,8.24
2019-03-24T22:30:09.078Z,8.24
2019-03-24T22:32:37.709Z,8.07
2019-03-24T22:35:06.944Z,8.11
2019-03-24T22:37:35.639Z,7.98
2019-03-24T22:40:08.264Z,8.12
2019-03-24T22:42:36.896Z,8.15
2019-03-24T22:45:07.269Z,8.09
2019-03-24T22:47:35.901Z,8.03
2019-03-24T22:50:07.374Z,8.06
2019-03-24T22:52:35.904Z,8.03
2019-03-24T22:55:06.138Z,7.95
2019-03-24T22:57:34.771Z,7.91
2019-03-24T23:00:03.695Z,7.90
2019-03-24T23:02:32.205Z,7.83
2019-03-24T23:05:00.685Z,7.78
2019-03-24T23:07:29.443Z,7.66
2019-03-24T23:09:58.080Z,7.60
2019-03-24T23:12:26.644Z,7.54
2019-03-24T23:14:55.175Z,7.57
2019-03-24T23:17:23.804Z,7.56
2019-03-24T23:19:52.437Z,7.50
2019-03-24T23:22:21.245Z,7.28
2019-03-24T23:24:49.884Z,7.19
2019-03-24T23:27:18.374Z,7.12
2019-03-24T23:29:46.910Z,7.03
2019-03-24T23:32:15.542Z,7.01
2019-03-24T23:34:44.178Z,7.05
2019-03-24T23:37:12.882Z,6.94
2019-03-24T23:39:41.377Z,6.97
2019-03-24T23:42:10.008Z,6.94
2019-03-24T23:44:38.684Z,6.88
2019-03-24T23:47:07.256Z,6.79
2019-03-24T23:49:35.752Z,6.82
2019-03-24T23:52:04.421Z,6.79
2019-03-24T23:54:33.059Z,6.78
2019-03-24T23:57:01.628Z,6.80
2019-03-24T23:59:30.122Z,6.82
